createdAt,value
2019-03-16T00:01:18.831Z,65.80
2019-03-16T00:03:24.478Z,65.80
2019-03-16T00:05:30.049Z,65.90
2019-03-16T00:07:35.338Z,65.90
2019-03-16T00:09:40.574Z,65.90
2019-03-16T00:11:46.169Z,65.90
2019-03-16T00:13:51.697Z,65.90
2019-03-16T00:15:57.008Z,65.90
2019-03-16T00:18:02.967Z,66.00
2019-03-16T00:20:08.695Z,66.00
2019-03-16T00:22:14.053Z,66.70
2019-03-16T00:24:19.595Z,65.80
2019-03-16T00:26:24.802Z,65.80
2019-03-16T00:28:30.016Z,65.90
2019-03-16T00:30:35.711Z,66.00
2019-03-16T00:32:41.026Z,66.10
2019-03-16T00:34:46.297Z,66.20
2019-03-16T00:36:52.378Z,66.20
2019-03-16T00:38:58.357Z,66.20
2019-03-16T00:41:03.898Z,66.30
2019-03-16T00:43:09.784Z,66.30
2019-03-16T00:45:15.545Z,66.30
2019-03-16T00:47:20.498Z,66.30
2019-03-16T00:49:25.953Z,66.50
2019-03-16T00:51:31.149Z,66.30
2019-03-16T00:53:36.492Z,66.30
2019-03-16T00:55:41.774Z,66.40
2019-03-16T00:57:47.028Z,66.40
2019-03-16T00:59:51.981Z,66.30
2019-03-16T01:01:57.216Z,66.40
2019-03-16T01:04:02.104Z,66.50
2019-03-16T01:06:07.184Z,66.70
2019-03-16T01:08:12.118Z,66.50
2019-03-16T01:10:17.682Z,66.50
2019-03-16T01:12:22.883Z,66.50
2019-03-16T01:14:28.665Z,66.50
2019-03-16T01:16:33.922Z,66.50
2019-03-16T01:18:39.446Z,66.60
2019-03-16T01:20:45.171Z,66.80
2019-03-16T01:22:50.659Z,66.80
2019-03-16T01:24:55.813Z,66.80
2019-03-16T01:27:01.292Z,66.50
2019-03-16T01:29:06.930Z,66.50
2019-03-16T01:31:12.697Z,66.50
2019-03-16T01:33:19.189Z,66.50
2019-03-16T01:35:24.758Z,66.50
2019-03-16T01:37:29.720Z,66.50
2019-03-16T01:39:34.911Z,66.70
2019-03-16T01:41:39.801Z,67.30
2019-03-16T01:43:45.287Z,66.30
2019-03-16T01:45:50.815Z,66.10
2019-03-16T01:47:56.424Z,66.10
2019-03-16T01:50:01.612Z,66.10
2019-03-16T01:52:06.769Z,66.00
2019-03-16T01:54:12.165Z,65.60
2019-03-16T01:56:18.146Z,65.70
2019-03-16T01:58:23.942Z,65.90
2019-03-16T02:00:30.565Z,66.00
2019-03-16T02:02:36.065Z,65.90
2019-03-16T02:04:42.284Z,65.80
2019-03-16T02:06:48.781Z,66.00
2019-03-16T02:08:53.781Z,65.70
2019-03-16T02:10:58.938Z,65.80
2019-03-16T02:13:04.327Z,66.10
2019-03-16T02:15:09.922Z,66.20
2019-03-16T02:17:15.246Z,66.20
2019-03-16T02:19:20.203Z,66.30
2019-03-16T02:21:25.710Z,66.30
2019-03-16T02:23:31.531Z,66.30
2019-03-16T02:25:36.827Z,66.30
2019-03-16T02:27:42.500Z,67.10
2019-03-16T02:29:47.846Z,66.40
2019-03-16T02:31:52.742Z,66.40
2019-03-16T02:33:58.257Z,66.40
2019-03-16T02:36:03.481Z,66.40
2019-03-16T02:38:09.394Z,66.40
2019-03-16T02:40:14.913Z,66.30
2019-03-16T02:42:20.357Z,66.30
2019-03-16T02:44:25.342Z,66.40
2019-03-16T02:46:30.526Z,66.40
2019-03-16T02:48:36.024Z,66.40
2019-03-16T02:50:41.940Z,66.40
2019-03-16T02:52:49.709Z,66.50
2019-03-16T02:54:53.780Z,66.40
2019-03-16T02:56:59.539Z,66.40
2019-03-16T02:59:04.792Z,66.30
2019-03-16T03:01:10.643Z,66.00
2019-03-16T03:03:28.690Z,65.80
2019-03-16T03:05:23.547Z,65.40
2019-03-16T03:07:28.426Z,65.40
2019-03-16T03:09:34.417Z,65.40
2019-03-16T03:11:39.630Z,65.40
2019-03-16T03:13:44.979Z,65.50
2019-03-16T03:15:50.669Z,65.70
2019-03-16T03:17:56.482Z,65.80
2019-03-16T03:20:01.742Z,65.90
2019-03-16T03:22:06.728Z,65.90
2019-03-16T03:24:12.509Z,66.00
2019-03-16T03:26:18.068Z,66.00
2019-03-16T03:28:23.807Z,66.00
2019-03-16T03:30:29.571Z,65.90
2019-03-16T03:32:35.140Z,66.00
2019-03-16T03:34:40.169Z,66.00
2019-03-16T03:36:45.581Z,65.80
2019-03-16T03:38:50.693Z,65.60
2019-03-16T03:41:01.210Z,65.60
2019-03-16T03:43:03.638Z,65.50
2019-03-16T03:45:08.925Z,65.50
2019-03-16T03:47:14.162Z,65.50
2019-03-16T03:49:19.670Z,65.40
2019-03-16T03:51:24.933Z,65.30
2019-03-16T03:53:29.860Z,65.30
2019-03-16T03:55:34.953Z,65.40
2019-03-16T03:57:40.191Z,65.40
2019-03-16T03:59:45.947Z,65.30
2019-03-16T04:01:51.121Z,65.50
2019-03-16T04:04:13.777Z,65.60
2019-03-16T04:06:03.879Z,65.60
2019-03-16T04:08:08.940Z,65.80
2019-03-16T04:10:14.277Z,66.00
2019-03-16T04:12:20.111Z,65.90
2019-03-16T04:14:25.378Z,66.00
2019-03-16T04:16:31.046Z,65.90
2019-03-16T04:18:36.636Z,66.00
2019-03-16T04:20:41.954Z,66.10
2019-03-16T04:22:46.933Z,66.20
2019-03-16T04:24:52.158Z,66.00
2019-03-16T04:26:57.318Z,66.20
2019-03-16T04:29:02.981Z,66.10
2019-03-16T04:31:07.882Z,66.20
2019-03-16T04:33:13.074Z,66.20
2019-03-16T04:35:18.069Z,66.30
2019-03-16T04:37:23.379Z,66.20
2019-03-16T04:39:28.374Z,66.40
2019-03-16T04:41:33.327Z,66.50
2019-03-16T04:43:38.881Z,66.50
2019-03-16T04:45:44.115Z,66.50
2019-03-16T04:47:49.574Z,66.70
2019-03-16T04:49:55.031Z,66.60
2019-03-16T04:52:00.478Z,66.50
2019-03-16T04:54:05.605Z,66.70
2019-03-16T04:56:10.750Z,66.80
2019-03-16T04:58:16.263Z,66.80
2019-03-16T05:00:21.607Z,66.80
2019-03-16T05:02:26.795Z,66.80
2019-03-16T05:04:41.830Z,66.80
2019-03-16T05:06:38.649Z,66.90
2019-03-16T05:08:44.062Z,66.80
2019-03-16T05:10:49.633Z,66.90
2019-03-16T05:12:54.985Z,67.00
2019-03-16T05:15:00.393Z,67.00
2019-03-16T05:17:06.614Z,67.00
2019-03-16T05:19:11.532Z,67.00
2019-03-16T05:21:16.932Z,66.90
2019-03-16T05:23:22.562Z,66.90
2019-03-16T05:25:27.820Z,66.90
2019-03-16T05:27:32.977Z,67.00
2019-03-16T05:29:38.232Z,67.00
2019-03-16T05:31:43.434Z,67.00
2019-03-16T05:33:48.860Z,67.00
2019-03-16T05:35:54.176Z,67.70
2019-03-16T05:38:00.059Z,67.20
2019-03-16T05:40:05.789Z,67.10
2019-03-16T05:42:11.132Z,67.20
2019-03-16T05:44:16.118Z,67.80
2019-03-16T05:46:21.460Z,67.00
2019-03-16T05:48:26.902Z,67.10
2019-03-16T05:50:33.910Z,67.30
2019-03-16T05:52:38.867Z,67.20
2019-03-16T05:54:45.859Z,67.20
2019-03-16T05:56:52.279Z,67.40
2019-03-16T05:58:57.721Z,68.10
2019-03-16T06:01:03.316Z,67.30
2019-03-16T06:03:08.220Z,67.30
2019-03-16T06:05:13.798Z,67.60
2019-03-16T06:07:18.699Z,67.40
2019-03-16T06:09:24.562Z,67.50
2019-03-16T06:11:30.412Z,67.50
2019-03-16T06:13:35.985Z,67.50
2019-03-16T06:15:40.965Z,67.40
2019-03-16T06:17:46.221Z,67.50
2019-03-16T06:19:51.561Z,67.50
2019-03-16T06:21:56.796Z,67.50
2019-03-16T06:24:01.750Z,67.30
2019-03-16T06:26:07.671Z,67.40
2019-03-16T06:28:12.649Z,67.50
2019-03-16T06:30:20.818Z,67.60
2019-03-16T06:32:25.147Z,67.40
2019-03-16T06:34:30.305Z,67.30
2019-03-16T06:36:35.287Z,67.40
2019-03-16T06:38:40.196Z,67.40
2019-03-16T06:40:45.860Z,67.50
2019-03-16T06:42:51.153Z,67.50
2019-03-16T06:44:56.765Z,67.60
2019-03-16T06:47:02.262Z,67.70
2019-03-16T06:49:07.531Z,67.80
2019-03-16T06:51:12.555Z,68.00
2019-03-16T06:53:19.590Z,68.00
2019-03-16T06:55:24.496Z,68.00
2019-03-16T06:57:30.019Z,68.00
2019-03-16T06:59:35.606Z,68.00
2019-03-16T07:01:40.843Z,68.10
2019-03-16T07:03:46.352Z,68.20
2019-03-16T07:05:51.798Z,68.40
2019-03-16T07:07:56.703Z,68.50
2019-03-16T07:10:02.101Z,68.50
2019-03-16T07:12:07.464Z,68.50
2019-03-16T07:14:12.744Z,68.50
2019-03-16T07:16:18.488Z,68.60
2019-03-16T07:18:23.637Z,68.70
2019-03-16T07:20:28.601Z,68.70
2019-03-16T07:22:33.770Z,68.70
2019-03-16T07:24:38.749Z,68.80
2019-03-16T07:26:43.842Z,68.90
2019-03-16T07:28:49.343Z,68.90
2019-03-16T07:30:55.278Z,69.00
2019-03-16T07:33:00.491Z,69.10
2019-03-16T07:35:06.802Z,69.20
2019-03-16T07:37:12.160Z,69.30
2019-03-16T07:39:17.937Z,69.40
2019-03-16T07:41:23.497Z,69.50
2019-03-16T07:43:28.658Z,69.70
2019-03-16T07:45:33.937Z,69.90
2019-03-16T07:47:39.372Z,70.10
2019-03-16T07:49:45.138Z,70.40
2019-03-16T07:51:50.418Z,70.60
2019-03-16T07:53:55.312Z,70.90
2019-03-16T07:56:00.237Z,71.10
2019-03-16T07:58:05.369Z,71.30
2019-03-16T08:00:10.677Z,71.50
2019-03-16T08:02:16.272Z,71.80
2019-03-16T08:04:22.618Z,72.00
2019-03-16T08:06:27.903Z,72.30
2019-03-16T08:08:33.911Z,72.40
2019-03-16T08:10:38.785Z,72.60
2019-03-16T08:12:44.141Z,72.70
2019-03-16T08:14:49.753Z,72.90
2019-03-16T08:16:54.969Z,72.80
2019-03-16T08:19:00.356Z,73.00
2019-03-16T08:21:05.637Z,73.00
2019-03-16T08:23:10.924Z,73.00
2019-03-16T08:25:15.986Z,73.20
2019-03-16T08:27:22.201Z,73.10
2019-03-16T08:29:27.749Z,73.10
2019-03-16T08:31:33.313Z,73.10
2019-03-16T08:33:39.103Z,73.20
2019-03-16T08:35:44.434Z,73.00
2019-03-16T08:37:49.469Z,73.80
2019-03-16T08:39:54.964Z,73.00
2019-03-16T08:42:00.393Z,72.90
2019-03-16T08:44:05.983Z,72.90
2019-03-16T08:46:11.454Z,72.80
2019-03-16T08:48:22.915Z,72.80
2019-03-16T08:50:23.891Z,72.60
2019-03-16T08:52:29.334Z,72.50
2019-03-16T08:54:35.640Z,72.70
2019-03-16T08:56:41.098Z,72.60
2019-03-16T08:58:46.300Z,72.50
2019-03-16T09:00:51.461Z,72.40
2019-03-16T09:02:56.438Z,72.40
2019-03-16T09:05:01.359Z,72.30
2019-03-16T09:07:06.747Z,72.20
2019-03-16T09:09:11.942Z,72.00
2019-03-16T09:11:17.298Z,72.10
2019-03-16T09:13:22.633Z,72.20
2019-03-16T09:15:27.763Z,72.10
2019-03-16T09:17:32.659Z,71.90
2019-03-16T09:19:37.947Z,71.80
2019-03-16T09:21:43.550Z,71.50
2019-03-16T09:23:48.790Z,71.30
2019-03-16T09:25:54.579Z,71.20
2019-03-16T09:28:00.141Z,71.10
2019-03-16T09:30:06.794Z,71.10
2019-03-16T09:32:13.035Z,71.20
2019-03-16T09:34:18.280Z,71.20
2019-03-16T09:36:24.251Z,71.30
2019-03-16T09:38:29.448Z,71.40
2019-03-16T09:40:34.953Z,71.30
2019-03-16T09:42:40.718Z,71.10
2019-03-16T09:44:45.964Z,71.00
2019-03-16T09:46:50.847Z,70.90
2019-03-16T09:48:56.777Z,70.70
2019-03-16T09:51:02.251Z,70.60
2019-03-16T09:53:07.233Z,70.60
2019-03-16T09:55:12.580Z,70.50
2019-03-16T09:57:18.188Z,70.60
2019-03-16T09:59:23.128Z,70.50
2019-03-16T10:01:28.432Z,70.40
2019-03-16T10:03:33.698Z,70.30
2019-03-16T10:05:38.942Z,70.40
2019-03-16T10:07:44.216Z,70.60
2019-03-16T10:09:49.376Z,70.40
2019-03-16T10:11:54.288Z,70.40
2019-03-16T10:13:59.791Z,70.40
2019-03-16T10:16:04.765Z,70.40
2019-03-16T10:18:10.024Z,70.30
2019-03-16T10:20:15.235Z,70.20
2019-03-16T10:22:20.819Z,70.20
2019-03-16T10:24:26.394Z,70.50
2019-03-16T10:26:31.724Z,70.30
2019-03-16T10:28:43.605Z,70.10
2019-03-16T10:30:44.172Z,69.90
2019-03-16T10:32:49.225Z,69.70
2019-03-16T10:34:54.133Z,69.60
2019-03-16T10:36:59.770Z,69.60
2019-03-16T10:39:06.714Z,70.20
2019-03-16T10:41:11.703Z,69.20
2019-03-16T10:43:17.223Z,69.00
2019-03-16T10:45:23.183Z,69.00
2019-03-16T10:47:28.966Z,68.80
2019-03-16T10:49:34.349Z,68.70
2019-03-16T10:51:41.010Z,68.50
2019-03-16T10:53:47.507Z,68.20
2019-03-16T10:55:52.559Z,68.20
2019-03-16T10:57:57.445Z,68.00
2019-03-16T11:00:03.137Z,68.00
2019-03-16T11:02:08.711Z,68.00
2019-03-16T11:04:14.186Z,67.90
2019-03-16T11:06:19.376Z,67.90
2019-03-16T11:08:24.619Z,67.80
2019-03-16T11:10:30.051Z,67.60
2019-03-16T11:12:35.334Z,67.50
2019-03-16T11:14:41.267Z,67.30
2019-03-16T11:16:46.562Z,67.40
2019-03-16T11:18:51.906Z,67.40
2019-03-16T11:20:57.155Z,67.40
2019-03-16T11:23:03.959Z,67.30
2019-03-16T11:25:09.409Z,67.30
2019-03-16T11:27:17.101Z,67.40
2019-03-16T11:29:22.042Z,67.20
2019-03-16T11:31:27.310Z,67.00
2019-03-16T11:33:32.497Z,67.00
2019-03-16T11:35:37.917Z,67.00
2019-03-16T11:37:43.087Z,66.90
2019-03-16T11:39:49.255Z,66.70
2019-03-16T11:41:54.229Z,66.70
2019-03-16T11:43:59.472Z,66.70
2019-03-16T11:46:04.653Z,66.50
2019-03-16T11:48:10.049Z,66.20
2019-03-16T11:50:15.213Z,66.10
2019-03-16T11:52:20.504Z,65.50
2019-03-16T11:54:25.655Z,65.50
2019-03-16T11:56:31.241Z,65.50
2019-03-16T11:58:36.777Z,65.40
2019-03-16T12:00:42.243Z,65.10
2019-03-16T12:02:48.130Z,64.80
2019-03-16T12:04:53.442Z,64.80
2019-03-16T12:06:59.413Z,64.60
2019-03-16T12:09:07.536Z,64.30
2019-03-16T12:11:12.997Z,64.30
2019-03-16T12:13:19.453Z,64.30
2019-03-16T12:15:24.997Z,64.20
2019-03-16T12:17:30.202Z,63.90
2019-03-16T12:19:35.973Z,63.40
2019-03-16T12:21:42.989Z,63.40
2019-03-16T12:23:48.948Z,63.40
2019-03-16T12:25:54.399Z,63.50
2019-03-16T12:28:00.246Z,63.50
2019-03-16T12:30:05.601Z,63.30
2019-03-16T12:32:11.296Z,63.00
2019-03-16T12:34:17.267Z,62.80
2019-03-16T12:36:22.599Z,62.50
2019-03-16T12:38:27.762Z,62.20
2019-03-16T12:40:33.158Z,62.30
2019-03-16T12:42:38.417Z,62.30
2019-03-16T12:44:43.759Z,62.40
2019-03-16T12:46:49.031Z,62.50
2019-03-16T12:48:54.703Z,62.50
2019-03-16T12:50:59.815Z,62.10
2019-03-16T12:53:04.713Z,62.20
2019-03-16T12:55:10.372Z,62.00
2019-03-16T12:57:15.615Z,62.00
2019-03-16T12:59:21.205Z,62.00
2019-03-16T13:01:27.041Z,62.00
2019-03-16T13:03:31.931Z,61.90
2019-03-16T13:05:37.538Z,62.30
2019-03-16T13:07:42.452Z,62.00
2019-03-16T13:09:48.290Z,61.90
2019-03-16T13:11:53.810Z,61.90
2019-03-16T13:13:59.176Z,62.00
2019-03-16T13:16:04.538Z,61.80
2019-03-16T13:18:09.745Z,62.00
2019-03-16T13:20:15.241Z,61.90
2019-03-16T13:22:20.639Z,61.90
2019-03-16T13:24:25.876Z,61.90
2019-03-16T13:26:31.627Z,62.00
2019-03-16T13:28:37.359Z,61.90
2019-03-16T13:30:42.273Z,62.00
2019-03-16T13:32:47.906Z,61.90
2019-03-16T13:34:53.067Z,62.10
2019-03-16T13:36:58.528Z,62.00
2019-03-16T13:39:04.978Z,61.90
2019-03-16T13:41:10.224Z,61.80
2019-03-16T13:43:15.611Z,61.90
2019-03-16T13:45:21.293Z,61.90
2019-03-16T13:47:26.684Z,61.90
2019-03-16T13:49:31.902Z,61.90
2019-03-16T13:51:37.152Z,61.90
2019-03-16T13:53:42.444Z,61.80
2019-03-16T13:55:47.689Z,61.90
2019-03-16T13:57:53.303Z,61.90
2019-03-16T14:00:10.870Z,62.00
2019-03-16T14:02:05.909Z,61.90
2019-03-16T14:04:11.361Z,61.80
2019-03-16T14:06:16.602Z,61.80
2019-03-16T14:08:22.337Z,61.80
2019-03-16T14:10:27.370Z,61.80
2019-03-16T14:12:32.664Z,61.70
2019-03-16T14:14:38.243Z,61.50
2019-03-16T14:16:43.503Z,61.50
2019-03-16T14:18:48.502Z,61.80
2019-03-16T14:20:53.707Z,61.80
2019-03-16T14:22:58.993Z,61.80
2019-03-16T14:25:07.261Z,61.80
2019-03-16T14:27:10.980Z,61.50
2019-03-16T14:29:16.258Z,61.30
2019-03-16T14:31:21.820Z,61.40
2019-03-16T14:33:26.968Z,61.50
2019-03-16T14:35:31.919Z,61.50
2019-03-16T14:37:37.384Z,61.80
2019-03-16T14:39:42.281Z,61.80
2019-03-16T14:41:48.353Z,61.70
2019-03-16T14:43:53.685Z,61.80
2019-03-16T14:45:59.744Z,61.80
2019-03-16T14:48:05.108Z,61.80
2019-03-16T14:50:16.268Z,61.30
2019-03-16T14:52:21.038Z,61.20
2019-03-16T14:54:33.098Z,61.20
2019-03-16T14:56:38.078Z,61.30
2019-03-16T14:58:45.857Z,61.20
2019-03-16T15:00:51.215Z,60.90
2019-03-16T15:02:56.977Z,61.00
2019-03-16T15:05:02.205Z,60.70
2019-03-16T15:07:07.750Z,60.80
2019-03-16T15:09:13.319Z,60.70
2019-03-16T15:11:18.885Z,60.90
2019-03-16T15:13:26.757Z,60.70
2019-03-16T15:15:31.540Z,60.70
2019-03-16T15:17:37.507Z,60.60
2019-03-16T15:19:42.468Z,60.60
2019-03-16T15:21:47.872Z,60.40
2019-03-16T15:23:53.490Z,60.10
2019-03-16T15:25:59.087Z,60.10
2019-03-16T15:28:06.310Z,60.20
2019-03-16T15:30:14.948Z,60.30
2019-03-16T15:32:21.840Z,60.00
2019-03-16T15:34:26.636Z,59.80
2019-03-16T15:36:31.988Z,59.80
2019-03-16T15:38:36.917Z,59.90
2019-03-16T15:40:41.877Z,59.60
2019-03-16T15:42:47.590Z,59.60
2019-03-16T15:44:52.821Z,59.50
2019-03-16T15:46:57.731Z,59.50
2019-03-16T15:49:02.875Z,59.60
2019-03-16T15:51:08.773Z,59.50
2019-03-16T15:53:14.017Z,59.50
2019-03-16T15:55:19.276Z,59.50
2019-03-16T15:57:25.146Z,59.40
2019-03-16T15:59:30.296Z,59.40
2019-03-16T16:01:35.886Z,59.60
2019-03-16T16:03:41.765Z,59.50
2019-03-16T16:05:46.884Z,59.50
2019-03-16T16:07:51.996Z,59.60
2019-03-16T16:09:57.377Z,59.40
2019-03-16T16:12:02.965Z,59.40
2019-03-16T16:14:08.527Z,59.30
2019-03-16T16:16:13.976Z,59.30
2019-03-16T16:18:21.315Z,59.10
2019-03-16T16:20:26.084Z,58.90
2019-03-16T16:22:31.688Z,59.00
2019-03-16T16:24:36.683Z,58.80
2019-03-16T16:26:42.500Z,58.70
2019-03-16T16:28:48.140Z,58.80
2019-03-16T16:30:53.437Z,58.70
2019-03-16T16:32:59.004Z,58.50
2019-03-16T16:35:04.468Z,58.50
2019-03-16T16:37:10.416Z,58.40
2019-03-16T16:39:15.395Z,58.30
2019-03-16T16:41:20.654Z,58.30
2019-03-16T16:43:25.885Z,58.20
2019-03-16T16:45:31.240Z,58.20
2019-03-16T16:47:36.191Z,58.10
2019-03-16T16:49:41.661Z,58.00
2019-03-16T16:51:46.863Z,58.00
2019-03-16T16:53:51.926Z,58.00
2019-03-16T16:55:58.135Z,57.90
2019-03-16T16:58:03.326Z,58.00
2019-03-16T17:00:12.830Z,57.90
2019-03-16T17:02:18.878Z,57.80
2019-03-16T17:04:24.403Z,57.80
2019-03-16T17:06:29.561Z,57.50
2019-03-16T17:08:35.098Z,57.50
2019-03-16T17:10:40.570Z,57.50
2019-03-16T17:12:45.865Z,57.60
2019-03-16T17:14:50.847Z,57.70
2019-03-16T17:16:58.552Z,57.70
2019-03-16T17:19:02.947Z,57.60
2019-03-16T17:21:08.711Z,57.70
2019-03-16T17:23:14.008Z,57.70
2019-03-16T17:25:19.399Z,57.70
2019-03-16T17:27:24.678Z,57.50
2019-03-16T17:29:29.908Z,57.50
2019-03-16T17:31:42.275Z,57.30
2019-03-16T17:33:42.278Z,57.50
2019-03-16T17:35:47.837Z,57.50
2019-03-16T17:37:53.326Z,57.40
2019-03-16T17:39:58.903Z,57.50
2019-03-16T17:42:07.792Z,57.50
2019-03-16T17:44:12.233Z,57.50
2019-03-16T17:46:17.377Z,57.30
2019-03-16T17:48:22.940Z,57.10
2019-03-16T17:50:28.928Z,57.10
2019-03-16T17:52:35.095Z,57.00
2019-03-16T17:54:40.689Z,57.00
2019-03-16T17:56:46.013Z,56.90
2019-03-16T17:58:51.281Z,56.70
2019-03-16T18:00:56.247Z,56.80
2019-03-16T18:03:01.203Z,56.70
2019-03-16T18:05:06.516Z,56.90
2019-03-16T18:07:11.404Z,56.70
2019-03-16T18:09:16.386Z,56.50
2019-03-16T18:11:21.623Z,56.50
2019-03-16T18:13:27.446Z,56.50
2019-03-16T18:15:32.370Z,56.50
2019-03-16T18:17:37.541Z,56.30
2019-03-16T18:19:42.637Z,56.40
2019-03-16T18:21:47.509Z,56.40
2019-03-16T18:23:52.838Z,56.40
2019-03-16T18:25:58.092Z,56.40
2019-03-16T18:28:03.117Z,56.50
2019-03-16T18:30:10.947Z,56.40
2019-03-16T18:32:15.933Z,56.40
2019-03-16T18:34:21.843Z,56.40
2019-03-16T18:36:27.521Z,56.40
2019-03-16T18:38:32.709Z,56.60
2019-03-16T18:40:38.428Z,56.50
2019-03-16T18:42:44.227Z,56.60
2019-03-16T18:44:50.154Z,56.60
2019-03-16T18:46:55.338Z,56.60
2019-03-16T18:49:01.116Z,56.80
2019-03-16T18:51:06.171Z,56.90
2019-03-16T18:53:11.144Z,56.80
2019-03-16T18:55:16.463Z,56.90
2019-03-16T18:57:21.707Z,56.80
2019-03-16T18:59:26.913Z,56.70
2019-03-16T19:01:31.955Z,56.70
2019-03-16T19:03:37.532Z,56.80
2019-03-16T19:05:43.145Z,56.90
2019-03-16T19:07:48.146Z,56.80
2019-03-16T19:09:53.761Z,56.90
2019-03-16T19:11:59.722Z,56.90
2019-03-16T19:14:05.391Z,57.00
2019-03-16T19:16:10.580Z,56.90
2019-03-16T19:18:15.942Z,56.90
2019-03-16T19:20:21.777Z,57.00
2019-03-16T19:22:27.546Z,57.00
2019-03-16T19:24:32.888Z,57.00
2019-03-16T19:26:38.209Z,57.10
2019-03-16T19:28:44.225Z,57.10
2019-03-16T19:30:50.230Z,57.20
2019-03-16T19:32:55.511Z,57.10
2019-03-16T19:35:01.457Z,57.10
2019-03-16T19:37:06.488Z,57.10
2019-03-16T19:39:12.150Z,57.10
2019-03-16T19:41:17.688Z,57.10
2019-03-16T19:43:23.281Z,57.20
2019-03-16T19:45:28.225Z,57.30
2019-03-16T19:47:33.220Z,57.30
2019-03-16T19:49:38.170Z,57.30
2019-03-16T19:51:43.578Z,57.30
2019-03-16T19:53:48.884Z,57.20
2019-03-16T19:55:54.238Z,57.30
2019-03-16T19:57:59.187Z,57.20
2019-03-16T20:00:05.119Z,57.20
2019-03-16T20:02:10.057Z,57.20
2019-03-16T20:04:16.039Z,57.20
2019-03-16T20:06:26.072Z,57.10
2019-03-16T20:08:28.885Z,57.20
2019-03-16T20:10:34.272Z,57.10
2019-03-16T20:12:39.322Z,57.20
2019-03-16T20:14:44.862Z,57.10
2019-03-16T20:16:50.089Z,56.90
2019-03-16T20:18:55.231Z,56.90
2019-03-16T20:21:00.737Z,57.00
2019-03-16T20:23:06.111Z,57.00
2019-03-16T20:25:11.669Z,56.90
2019-03-16T20:27:18.565Z,56.80
2019-03-16T20:29:24.239Z,56.70
2019-03-16T20:31:29.702Z,56.60
2019-03-16T20:33:34.926Z,56.70
2019-03-16T20:35:40.276Z,57.40
2019-03-16T20:37:46.038Z,56.60
2019-03-16T20:39:50.988Z,56.70
2019-03-16T20:41:56.178Z,56.60
2019-03-16T20:44:01.193Z,56.80
2019-03-16T20:46:06.217Z,56.80
2019-03-16T20:48:11.486Z,56.70
2019-03-16T20:50:16.634Z,56.70
2019-03-16T20:52:21.738Z,56.60
2019-03-16T20:54:28.358Z,57.20
2019-03-16T20:56:33.205Z,56.50
2019-03-16T20:58:38.463Z,56.50
2019-03-16T21:00:43.423Z,56.50
2019-03-16T21:02:48.740Z,56.50
2019-03-16T21:04:54.162Z,56.50
2019-03-16T21:06:59.650Z,56.50
2019-03-16T21:09:07.216Z,56.50
2019-03-16T21:11:12.753Z,56.40
2019-03-16T21:13:18.289Z,56.40
2019-03-16T21:15:24.037Z,56.30
2019-03-16T21:17:29.201Z,56.30
2019-03-16T21:19:34.433Z,56.30
2019-03-16T21:21:39.714Z,56.30
2019-03-16T21:23:44.964Z,56.30
2019-03-16T21:25:50.472Z,56.30
2019-03-16T21:27:55.387Z,56.30
2019-03-16T21:30:00.874Z,56.30
2019-03-16T21:32:06.484Z,56.30
2019-03-16T21:34:11.985Z,56.30
2019-03-16T21:36:17.635Z,56.30
2019-03-16T21:38:23.379Z,56.50
2019-03-16T21:40:28.776Z,56.40
2019-03-16T21:42:34.011Z,56.40
2019-03-16T21:44:39.156Z,57.20
2019-03-16T21:46:44.090Z,56.50
2019-03-16T21:48:49.210Z,56.50
2019-03-16T21:50:54.429Z,56.50
2019-03-16T21:52:59.969Z,56.60
2019-03-16T21:55:05.969Z,56.50
2019-03-16T21:57:11.571Z,56.50
2019-03-16T21:59:17.082Z,56.60
2019-03-16T22:01:22.345Z,56.60
2019-03-16T22:03:27.425Z,56.50
2019-03-16T22:05:32.731Z,56.70
2019-03-16T22:07:38.024Z,56.60
2019-03-16T22:09:43.912Z,56.60
2019-03-16T22:11:48.892Z,56.80
2019-03-16T22:13:54.499Z,56.70
2019-03-16T22:15:59.729Z,56.60
2019-03-16T22:18:04.986Z,56.70
2019-03-16T22:20:12.429Z,56.60
2019-03-16T22:22:17.405Z,56.70
2019-03-16T22:24:23.183Z,56.70
2019-03-16T22:26:28.098Z,56.70
2019-03-16T22:28:33.009Z,56.60
2019-03-16T22:30:37.898Z,56.70
2019-03-16T22:32:43.251Z,56.60
2019-03-16T22:34:49.135Z,56.60
2019-03-16T22:36:54.317Z,56.60
2019-03-16T22:39:00.167Z,56.60
2019-03-16T22:41:05.776Z,56.80
2019-03-16T22:43:10.939Z,56.80
2019-03-16T22:45:16.487Z,56.80
2019-03-16T22:47:21.902Z,56.70
2019-03-16T22:49:26.798Z,56.70
2019-03-16T22:51:32.683Z,56.90
2019-03-16T22:53:38.033Z,56.90
2019-03-16T22:55:43.212Z,56.80
2019-03-16T22:57:48.696Z,56.80
2019-03-16T22:59:53.690Z,56.90
2019-03-16T23:01:58.607Z,56.90
2019-03-16T23:04:07.140Z,56.90
2019-03-16T23:06:11.500Z,57.00
2019-03-16T23:08:16.476Z,57.00
2019-03-16T23:10:22.070Z,56.90
2019-03-16T23:12:27.488Z,56.80
2019-03-16T23:14:32.832Z,56.90
2019-03-16T23:16:38.125Z,56.90
2019-03-16T23:18:43.552Z,56.90
2019-03-16T23:20:48.446Z,56.90
2019-03-16T23:22:53.390Z,57.00
2019-03-16T23:24:59.326Z,57.00
2019-03-16T23:27:04.887Z,57.00
2019-03-16T23:29:10.085Z,56.90
2019-03-16T23:31:15.299Z,57.00
2019-03-16T23:33:20.327Z,56.90
2019-03-16T23:35:25.222Z,56.90
2019-03-16T23:37:30.948Z,56.90
2019-03-16T23:39:36.807Z,57.10
2019-03-16T23:41:42.073Z,57.00
2019-03-16T23:43:47.067Z,57.10
2019-03-16T23:45:52.420Z,57.20
2019-03-16T23:47:57.641Z,57.20
2019-03-16T23:50:02.593Z,57.20
2019-03-16T23:52:08.370Z,57.10
2019-03-16T23:54:14.023Z,57.10
2019-03-16T23:56:19.188Z,57.20
2019-03-16T23:58:24.077Z,57.10
